Time;durP1;ratioP1;P1;durP2;ratioP2;P2;SDS_P1;SDS_P2;PMS_P1;PMS_P2;Temp;Humidity;BMP_temperature;BMP_pressure;BME280_temperature;BME280_humidity;BME280_pressure;Samples;Min_cycle;Max_cycle;Signal;HPM_P1;HPM_P2
2022/02/15 00:01:14;;;;;;;25.70;14.95;;;;;;;;;;5012006;28;20033;-72
2022/02/15 00:03:40;;;;;;;25.48;14.85;;;;;;;;;;5011256;28;20027;-71
2022/02/15 00:06:06;;;;;;;27.77;15.35;;;;;;;;;;5011716;28;20072;-72
2022/02/15 00:08:32;;;;;;;26.75;15.45;;;;;;;;;;5012038;28;20018;-71
2022/02/15 00:10:58;;;;;;;24.77;13.95;;;;;;;;;;5012041;28;20499;-70
2022/02/15 00:13:24;;;;;;;25.10;14.85;;;;;;;;;;5011241;28;20033;-72
2022/02/15 00:15:50;;;;;;;23.63;15.20;;;;;;;;;;5014270;28;20029;-71
2022/02/15 00:18:16;;;;;;;25.20;15.55;;;;;;;;;;5015968;28;20029;-71
2022/02/15 00:20:44;;;;;;;25.00;14.95;;;;;;;;;;5015194;28;20077;-71
2022/02/15 00:23:10;;;;;;;31.92;14.75;;;;;;;;;;5015372;28;20407;-71
2022/02/15 00:25:36;;;;;;;28.80;14.23;;;;;;;;;;5015835;28;20483;-72
2022/02/15 00:28:02;;;;;;;26.75;15.65;;;;;;;;;;5015884;28;20030;-71
2022/02/15 00:30:28;;;;;;;25.80;15.18;;;;;;;;;;5015560;28;20037;-71
2022/02/15 00:32:54;;;;;;;27.65;15.68;;;;;;;;;;5030280;28;20056;-71
2022/02/15 00:35:20;;;;;;;26.67;16.20;;;;;;;;;;5015339;28;20032;-71
2022/02/15 00:37:46;;;;;;;25.08;15.60;;;;;;;;;;5015040;28;20483;-72
2022/02/15 00:40:13;;;;;;;28.15;16.05;;;;;;;;;;5015568;28;20075;-72
2022/02/15 00:42:39;;;;;;;24.70;15.50;;;;;;;;;;5015163;28;20499;-70
2022/02/15 00:45:06;;;;;;;25.02;14.82;;;;;;;;;;5015016;28;20091;-71
2022/02/15 00:47:33;;;;;;;30.90;15.15;;;;;;;;;;5013889;28;20033;-71
2022/02/15 00:49:59;;;;;;;26.25;15.02;;;;;;;;;;5015518;28;20096;-71
2022/02/15 00:52:26;;;;;;;31.70;16.10;;;;;;;;;;5015443;28;20031;-71
2022/02/15 00:54:52;;;;;;;21.88;14.25;;;;;;;;;;5014051;28;20026;-71
2022/02/15 00:57:18;;;;;;;25.60;15.05;;;;;;;;;;5030320;28;20026;-72
2022/02/15 00:59:44;;;;;;;25.45;15.35;;;;;;;;;;5015666;28;20022;-71
2022/02/15 01:02:11;;;;;;;26.52;15.55;;;;;;;;;;5015248;28;20037;-72
2022/02/15 01:04:36;;;;;;;25.88;16.20;;;;;;;;;;5014459;28;20022;-71
2022/02/15 01:07:03;;;;;;;24.52;15.07;;;;;;;;;;5015096;28;20026;-71
2022/02/15 01:09:29;;;;;;;23.70;14.60;;;;;;;;;;5014824;28;20018;-72
2022/02/15 01:11:55;;;;;;;25.13;15.40;;;;;;;;;;5015023;28;20072;-72
2022/02/15 01:14:21;;;;;;;25.58;15.77;;;;;;;;;;5014180;28;20030;-71
2022/02/15 01:16:47;;;;;;;24.92;15.05;;;;;;;;;;5029995;28;20105;-72
2022/02/15 01:19:13;;;;;;;26.77;16.70;;;;;;;;;;5015827;28;20068;-72
2022/02/15 01:21:39;;;;;;;27.98;14.40;;;;;;;;;;5015068;28;20028;-71
2022/02/15 01:24:05;;;;;;;28.02;16.05;;;;;;;;;;5014045;28;20026;-71
2022/02/15 01:26:31;;;;;;;25.88;15.70;;;;;;;;;;5013835;28;20026;-71
2022/02/15 01:28:57;;;;;;;26.25;15.18;;;;;;;;;;5014729;28;20033;-71
2022/02/15 01:31:23;;;;;;;31.50;16.85;;;;;;;;;;5014785;28;20141;-72
2022/02/15 01:33:49;;;;;;;27.73;16.67;;;;;;;;;;5014074;28;20061;-72
2022/02/15 01:36:15;;;;;;;29.55;16.63;;;;;;;;;;5014602;28;20036;-72
2022/02/15 01:38:41;;;;;;;25.75;15.98;;;;;;;;;;5014618;28;20036;-73
2022/02/15 01:41:09;;;;;;;24.08;15.23;;;;;;;;;;5013724;28;20072;-73
2022/02/15 01:43:38;;;;;;;29.02;16.88;;;;;;;;;;5013795;28;20018;-72
2022/02/15 01:46:05;;;;;;;27.83;15.23;;;;;;;;;;5014231;28;20026;-72
2022/02/15 01:48:31;;;;;;;26.17;15.82;;;;;;;;;;5014509;28;20022;-72
2022/02/15 01:50:58;;;;;;;26.38;15.57;;;;;;;;;;5014357;28;20069;-72
2022/02/15 01:53:25;;;;;;;30.17;15.05;;;;;;;;;;5013672;28;20024;-72
2022/02/15 01:55:51;;;;;;;24.92;15.00;;;;;;;;;;5013816;28;20037;-72
2022/02/15 01:58:17;;;;;;;25.08;14.82;;;;;;;;;;5014095;28;20032;-72
2022/02/15 02:00:46;;;;;;;26.60;15.25;;;;;;;;;;5014055;28;20025;-72
2022/02/15 02:03:12;;;;;;;24.83;14.82;;;;;;;;;;5028669;28;20439;-72
2022/02/15 02:05:47;;;;;;;32.30;17.42;;;;;;;;;;5012069;28;20026;-71
2022/02/15 02:08:13;;;;;;;27.92;15.15;;;;;;;;;;5012296;28;20117;-72
2022/02/15 02:10:39;;;;;;;27.17;16.10;;;;;;;;;;5013701;28;20022;-72
2022/02/15 02:13:05;;;;;;;24.80;15.07;;;;;;;;;;5013225;28;20544;-71
2022/02/15 02:15:31;;;;;;;24.65;14.50;;;;;;;;;;5013637;28;20527;-71
2022/02/15 02:17:58;;;;;;;28.08;15.82;;;;;;;;;;5013613;28;20097;-71
2022/02/15 02:20:24;;;;;;;29.60;15.73;;;;;;;;;;5013647;28;20033;-71
2022/02/15 02:22:50;;;;;;;26.33;15.10;;;;;;;;;;5012944;28;20022;-71
2022/02/15 02:25:18;;;;;;;24.30;15.45;;;;;;;;;;5013674;28;20065;-71
2022/02/15 02:27:44;;;;;;;25.38;14.68;;;;;;;;;;5012076;28;20058;-71
2022/02/15 02:30:10;;;;;;;25.77;14.85;;;;;;;;;;5013502;28;20471;-72
2022/02/15 02:32:36;;;;;;;25.80;15.05;;;;;;;;;;5013394;28;20123;-71
2022/02/15 02:35:05;;;;;;;24.52;15.25;;;;;;;;;;5012778;28;20057;-71
2022/02/15 02:37:31;;;;;;;26.02;14.90;;;;;;;;;;5012808;28;20029;-72
2022/02/15 02:39:57;;;;;;;25.02;15.27;;;;;;;;;;5013299;28;20034;-72
2022/02/15 02:42:26;;;;;;;24.02;15.50;;;;;;;;;;5013238;28;20037;-72
2022/02/15 02:44:53;;;;;;;24.52;15.13;;;;;;;;;;5011454;28;20026;-72
2022/02/15 02:47:18;;;;;;;24.88;15.48;;;;;;;;;;5059503;23;20118;-72
2022/02/15 02:49:44;;;;;;;24.25;13.85;;;;;;;;;;5051631;28;20029;-73
2022/02/15 02:52:10;;;;;;;24.33;15.65;;;;;;;;;;5051605;28;20028;-73
2022/02/15 02:54:36;;;;;;;23.45;14.45;;;;;;;;;;5052412;28;20025;-74
2022/02/15 02:57:03;;;;;;;28.15;15.43;;;;;;;;;;5041053;28;20072;-73
2022/02/15 02:59:29;;;;;;;26.40;15.27;;;;;;;;;;5033311;28;20030;-73
2022/02/15 03:01:55;;;;;;;25.10;14.43;;;;;;;;;;5033211;28;20041;-74
2022/02/15 03:04:21;;;;;;;25.65;15.15;;;;;;;;;;5031898;28;20021;-72
2022/02/15 03:06:47;;;;;;;28.98;14.73;;;;;;;;;;5031250;28;20474;-73
2022/02/15 03:09:13;;;;;;;24.17;15.15;;;;;;;;;;5032850;28;20022;-73
2022/02/15 03:11:39;;;;;;;23.05;14.10;;;;;;;;;;5032496;28;20484;-73
2022/02/15 03:14:06;;;;;;;22.30;13.68;;;;;;;;;;5032187;28;20100;-73
2022/02/15 03:16:32;;;;;;;23.55;15.30;;;;;;;;;;5032417;28;20025;-73
2022/02/15 03:18:58;;;;;;;24.17;14.27;;;;;;;;;;5032395;28;20025;-73
2022/02/15 03:21:25;;;;;;;21.58;13.98;;;;;;;;;;5032388;28;20044;-72
2022/02/15 03:23:52;;;;;;;21.83;13.13;;;;;;;;;;5030483;28;20017;-73
2022/02/15 03:26:18;;;;;;;24.23;14.20;;;;;;;;;;5032260;28;20521;-73
2022/02/15 03:28:44;;;;;;;26.50;14.65;;;;;;;;;;5026402;28;20030;-73
2022/02/15 03:31:10;;;;;;;23.33;14.38;;;;;;;;;;5012450;28;20028;-73
2022/02/15 03:33:36;;;;;;;29.92;14.98;;;;;;;;;;5011704;28;20030;-73
2022/02/15 03:36:03;;;;;;;24.40;14.75;;;;;;;;;;5012663;28;20060;-73
2022/02/15 03:38:29;;;;;;;25.17;13.63;;;;;;;;;;5027620;28;20029;-73
2022/02/15 03:43:40;;;;;;;25.75;14.27;;;;;;;;;;5011689;28;20126;-72
2022/02/15 03:46:06;;;;;;;23.38;15.20;;;;;;;;;;5015251;28;20067;-72
2022/02/15 03:48:32;;;;;;;27.33;14.93;;;;;;;;;;5012316;28;20029;-73
2022/02/15 03:50:58;;;;;;;22.50;13.43;;;;;;;;;;5027704;28;20395;-73
2022/02/15 03:53:24;;;;;;;21.70;13.43;;;;;;;;;;5011618;28;20515;-72
2022/02/15 03:55:50;;;;;;;25.88;14.75;;;;;;;;;;5027516;28;20168;-72
2022/02/15 03:58:16;;;;;;;20.60;13.15;;;;;;;;;;5012308;28;20057;-72
2022/02/15 04:00:42;;;;;;;22.52;14.15;;;;;;;;;;5012419;28;20030;-73
2022/02/15 04:03:08;;;;;;;23.70;13.70;;;;;;;;;;5011688;28;20030;-72
2022/02/15 04:05:34;;;;;;;17.90;12.32;;;;;;;;;;5012442;28;20412;-73
2022/02/15 04:08:01;;;;;;;22.58;12.90;;;;;;;;;;5012262;28;20480;-73
2022/02/15 04:10:27;;;;;;;22.17;14.38;;;;;;;;;;5012034;28;20040;-74
2022/02/15 04:12:53;;;;;;;22.25;13.10;;;;;;;;;;5012118;28;20030;-73
2022/02/15 04:15:19;;;;;;;23.30;13.95;;;;;;;;;;5012436;28;20108;-72
2022/02/15 04:17:45;;;;;;;25.70;15.07;;;;;;;;;;5012323;28;20041;-73
2022/02/15 04:20:12;;;;;;;23.48;12.65;;;;;;;;;;5027532;28;20032;-73
2022/02/15 04:22:39;;;;;;;21.70;12.85;;;;;;;;;;5011735;28;20034;-72
2022/02/15 04:25:05;;;;;;;20.55;13.13;;;;;;;;;;5026846;28;20050;-74
2022/02/15 04:27:31;;;;;;;21.88;13.07;;;;;;;;;;5011901;28;20028;-74
2022/02/15 04:29:58;;;;;;;23.17;12.85;;;;;;;;;;5011882;28;20502;-74
2022/02/15 04:32:23;;;;;;;18.77;12.63;;;;;;;;;;5012015;28;20116;-73
2022/02/15 04:34:49;;;;;;;22.58;12.32;;;;;;;;;;5011388;28;20114;-73
2022/02/15 04:37:15;;;;;;;19.42;12.07;;;;;;;;;;5027124;28;20377;-73
2022/02/15 04:39:42;;;;;;;21.30;11.32;;;;;;;;;;5011856;28;20026;-73
2022/02/15 04:42:08;;;;;;;22.02;12.52;;;;;;;;;;5011761;28;20484;-74
2022/02/15 04:44:34;;;;;;;19.52;12.35;;;;;;;;;;5011148;28;20060;-73
2022/02/15 04:47:00;;;;;;;20.45;12.35;;;;;;;;;;5026680;28;20029;-73
2022/02/15 04:49:27;;;;;;;19.75;12.75;;;;;;;;;;5011787;28;20037;-73
2022/02/15 04:51:54;;;;;;;19.52;11.75;;;;;;;;;;5011767;28;20030;-73
2022/02/15 04:54:22;;;;;;;22.10;12.38;;;;;;;;;;5026100;28;20542;-73
2022/02/15 04:56:48;;;;;;;20.88;12.60;;;;;;;;;;5012298;28;20084;-73
2022/02/15 04:59:14;;;;;;;18.77;12.15;;;;;;;;;;5011913;28;20431;-73
2022/02/15 05:01:40;;;;;;;21.85;13.57;;;;;;;;;;5013404;28;20036;-73
2022/02/15 05:04:06;;;;;;;23.52;12.63;;;;;;;;;;5014722;28;20433;-73
2022/02/15 05:06:31;;;;;;;22.92;13.73;;;;;;;;;;5015576;28;20025;-74
2022/02/15 05:08:57;;;;;;;23.60;13.13;;;;;;;;;;5015251;28;20022;-73
2022/02/15 05:11:24;;;;;;;21.08;12.25;;;;;;;;;;5015322;28;20029;-73
2022/02/15 05:13:50;;;;;;;21.48;11.27;;;;;;;;;;5014411;28;20034;-73
2022/02/15 05:16:16;;;;;;;21.90;11.90;;;;;;;;;;5014919;28;20505;-74
2022/02/15 05:18:42;;;;;;;19.75;12.10;;;;;;;;;;5014962;28;20040;-73
2022/02/15 05:21:08;;;;;;;19.08;12.43;;;;;;;;;;5015025;28;20022;-73
2022/02/15 05:23:34;;;;;;;19.95;12.52;;;;;;;;;;5014054;28;20025;-74
2022/02/15 05:26:00;;;;;;;18.00;12.75;;;;;;;;;;5014902;28;20491;-74
2022/02/15 05:28:26;;;;;;;21.13;14.20;;;;;;;;;;5030088;28;20029;-73
2022/02/15 05:30:52;;;;;;;23.52;13.90;;;;;;;;;;5014654;28;20054;-73
2022/02/15 05:33:18;;;;;;;24.23;13.75;;;;;;;;;;5013844;28;20058;-73
2022/02/15 05:35:44;;;;;;;19.80;12.45;;;;;;;;;;5029717;28;20026;-73
2022/02/15 05:38:10;;;;;;;23.70;13.18;;;;;;;;;;5014559;28;20084;-73
2022/02/15 05:40:36;;;;;;;25.30;14.13;;;;;;;;;;5032263;28;20029;-73
2022/02/15 05:43:03;;;;;;;23.75;12.65;;;;;;;;;;5032011;28;20545;-72
2022/02/15 05:45:29;;;;;;;20.65;12.52;;;;;;;;;;5031870;28;20409;-73
2022/02/15 05:47:55;;;;;;;22.30;13.73;;;;;;;;;;5022639;28;20026;-71
2022/02/15 05:53:06;;;;;;;24.60;14.02;;;;;;;;;;5013807;28;20100;-73
2022/02/15 05:55:32;;;;;;;22.20;13.95;;;;;;;;;;5014061;28;20484;-73
2022/02/15 05:57:58;;;;;;;30.90;15.40;;;;;;;;;;5029276;28;20021;-73
2022/02/15 06:00:24;;;;;;;23.65;14.13;;;;;;;;;;5014067;28;20034;-71
2022/02/15 06:02:50;;;;;;;27.60;14.82;;;;;;;;;;5013483;28;20053;-73
2022/02/15 06:05:16;;;;;;;24.73;14.07;;;;;;;;;;5014451;28;20026;-74
2022/02/15 06:07:42;;;;;;;22.58;12.82;;;;;;;;;;5014070;28;20029;-74
2022/02/15 06:10:08;;;;;;;18.50;12.70;;;;;;;;;;5013802;28;20483;-74
2022/02/15 06:12:34;;;;;;;29.20;14.82;;;;;;;;;;5028171;28;20399;-74
2022/02/15 06:15:00;;;;;;;21.05;12.43;;;;;;;;;;5012806;28;20511;-74
2022/02/15 06:17:26;;;;;;;22.95;13.80;;;;;;;;;;5029244;28;20057;-74
2022/02/15 06:19:52;;;;;;;25.00;14.30;;;;;;;;;;5029102;28;20116;-74
2022/02/15 06:22:18;;;;;;;22.27;12.95;;;;;;;;;;5013814;28;20117;-73
2022/02/15 06:24:44;;;;;;;21.70;13.40;;;;;;;;;;5028366;28;20033;-73
2022/02/15 06:27:10;;;;;;;23.30;13.18;;;;;;;;;;5033389;28;20025;-72
2022/02/15 06:29:36;;;;;;;24.15;13.90;;;;;;;;;;5033815;28;20080;-73
2022/02/15 06:32:02;;;;;;;21.70;13.05;;;;;;;;;;5033915;28;20391;-73
2022/02/15 06:34:28;;;;;;;19.60;12.35;;;;;;;;;;5033134;28;20029;-73
2022/02/15 06:36:55;;;;;;;20.20;13.23;;;;;;;;;;5033998;28;20036;-73
2022/02/15 06:39:21;;;;;;;25.05;14.20;;;;;;;;;;5028455;28;20421;-74
2022/02/15 06:41:47;;;;;;;23.83;13.52;;;;;;;;;;5031954;28;20083;-73
2022/02/15 06:44:13;;;;;;;25.13;15.50;;;;;;;;;;5032659;28;20025;-73
2022/02/15 06:46:39;;;;;;;25.95;14.57;;;;;;;;;;5031819;28;20040;-73
2022/02/15 06:49:05;;;;;;;22.67;14.52;;;;;;;;;;5032214;28;20025;-73
2022/02/15 06:51:31;;;;;;;22.30;14.70;;;;;;;;;;5031520;28;20075;-72
2022/02/15 06:54:30;;;;;;;23.23;15.07;;;;;;;;;;5032635;28;20034;-74
2022/02/15 06:56:57;;;;;;;26.85;15.77;;;;;;;;;;5032256;28;20084;-73
2022/02/15 06:59:22;;;;;;;23.63;14.27;;;;;;;;;;5033908;28;20028;-74
2022/02/15 07:01:50;;;;;;;26.10;14.50;;;;;;;;;;5031679;28;20395;-74
2022/02/15 07:04:16;;;;;;;23.05;14.30;;;;;;;;;;5032460;28;20526;-74
2022/02/15 07:06:42;;;;;;;26.25;15.18;;;;;;;;;;5032937;28;20106;-73
2022/02/15 07:09:08;;;;;;;22.73;13.25;;;;;;;;;;5026955;28;20025;-74
2022/02/15 07:11:34;;;;;;;21.75;13.02;;;;;;;;;;5031128;28;20030;-73
2022/02/15 07:14:00;;;;;;;26.67;14.38;;;;;;;;;;5030492;28;20066;-73
2022/02/15 07:16:26;;;;;;;24.60;14.25;;;;;;;;;;5032365;28;20116;-73
2022/02/15 07:18:52;;;;;;;25.85;15.45;;;;;;;;;;5032522;28;20038;-72
2022/02/15 07:21:18;;;;;;;21.58;13.77;;;;;;;;;;5032248;28;20033;-74
2022/02/15 07:23:44;;;;;;;23.25;14.45;;;;;;;;;;5030034;28;20033;-73
2022/02/15 07:26:10;;;;;;;22.30;13.68;;;;;;;;;;5032306;28;20094;-73
2022/02/15 07:28:36;;;;;;;25.55;13.90;;;;;;;;;;5032088;28;20475;-73
2022/02/15 07:31:02;;;;;;;25.73;14.85;;;;;;;;;;5032501;28;20030;-73
2022/02/15 07:33:28;;;;;;;22.38;14.23;;;;;;;;;;5031534;28;20475;-73
2022/02/15 07:35:54;;;;;;;23.88;14.68;;;;;;;;;;5032427;28;20032;-74
2022/02/15 07:38:21;;;;;;;29.05;15.60;;;;;;;;;;5032319;28;20025;-73
2022/02/15 07:40:46;;;;;;;32.60;19.13;;;;;;;;;;5032539;28;20101;-72
2022/02/15 07:43:12;;;;;;;33.13;17.77;;;;;;;;;;5032190;28;20116;-73
2022/02/15 07:45:40;;;;;;;28.02;16.70;;;;;;;;;;5032006;28;20026;-74
2022/02/15 07:48:07;;;;;;;29.23;17.35;;;;;;;;;;5032406;28;20109;-73
2022/02/15 07:50:34;;;;;;;38.40;18.42;;;;;;;;;;5032342;28;20028;-73
2022/02/15 07:53:00;;;;;;;29.67;17.52;;;;;;;;;;5031435;28;20035;-73
2022/02/15 07:55:26;;;;;;;31.95;17.15;;;;;;;;;;5032102;28;20475;-73
2022/02/15 07:57:55;;;;;;;23.35;14.38;;;;;;;;;;5032211;28;20468;-73
2022/02/15 08:00:21;;;;;;;27.90;16.33;;;;;;;;;;5032060;28;20476;-72
2022/02/15 08:02:48;;;;;;;23.08;13.60;;;;;;;;;;5030391;28;20120;-73
2022/02/15 08:05:14;;;;;;;24.00;13.55;;;;;;;;;;5032196;28;20017;-73
2022/02/15 08:07:40;;;;;;;34.03;13.95;;;;;;;;;;5025668;28;20399;-73
2022/02/15 08:10:06;;;;;;;28.50;16.63;;;;;;;;;;5031838;28;20022;-73
2022/02/15 08:12:35;;;;;;;33.97;17.73;;;;;;;;;;5031782;28;20032;-73
2022/02/15 08:15:01;;;;;;;33.85;17.80;;;;;;;;;;5031136;28;20034;-73
2022/02/15 08:17:27;;;;;;;30.10;16.67;;;;;;;;;;5030499;28;20040;-74
2022/02/15 08:19:53;;;;;;;29.58;17.38;;;;;;;;;;5031856;28;20026;-74
2022/02/15 08:22:21;;;;;;;24.52;15.95;;;;;;;;;;5030408;28;20036;-74
2022/02/15 08:24:47;;;;;;;26.58;15.35;;;;;;;;;;5029577;28;20053;-74
2022/02/15 08:27:14;;;;;;;25.67;15.70;;;;;;;;;;5013415;28;20464;-73
2022/02/15 08:29:40;;;;;;;30.77;15.68;;;;;;;;;;5012503;28;20038;-75
2022/02/15 08:32:09;;;;;;;24.65;15.00;;;;;;;;;;5027301;28;20132;-73
2022/02/15 08:34:35;;;;;;;28.35;14.25;;;;;;;;;;5012036;28;20384;-73
2022/02/15 08:37:02;;;;;;;24.35;15.23;;;;;;;;;;5014943;28;20444;-73
2022/02/15 08:39:28;;;;;;;23.92;14.48;;;;;;;;;;5016495;28;20480;-72
2022/02/15 08:41:55;;;;;;;28.83;15.05;;;;;;;;;;5031283;28;20026;-73
2022/02/15 08:44:21;;;;;;;26.45;14.38;;;;;;;;;;5015310;28;20080;-74
2022/02/15 08:46:47;;;;;;;24.17;12.55;;;;;;;;;;5030269;23;20408;-74
2022/02/15 08:49:13;;;;;;;20.52;11.93;;;;;;;;;;5015294;28;20101;-72
2022/02/15 08:51:39;;;;;;;24.33;14.85;;;;;;;;;;5015182;28;20540;-73
2022/02/15 08:54:05;;;;;;;22.08;14.63;;;;;;;;;;5014902;28;20057;-72
2022/02/15 08:56:31;;;;;;;23.20;13.23;;;;;;;;;;5015198;28;20104;-72
2022/02/15 08:58:57;;;;;;;23.10;13.93;;;;;;;;;;5015330;28;20479;-73
2022/02/15 09:01:23;;;;;;;28.58;16.33;;;;;;;;;;5015317;28;20072;-71
2022/02/15 09:03:49;;;;;;;29.52;15.70;;;;;;;;;;5014449;28;20037;-72
2022/02/15 09:06:15;;;;;;;23.08;15.38;;;;;;;;;;5014775;28;20026;-73
2022/02/15 09:08:41;;;;;;;28.13;15.25;;;;;;;;;;5014938;28;20025;-73
2022/02/15 09:11:07;;;;;;;23.85;14.73;;;;;;;;;;5015094;28;20018;-73
2022/02/15 09:13:33;;;;;;;25.33;13.20;;;;;;;;;;5014474;28;20399;-73
2022/02/15 09:15:59;;;;;;;19.35;11.02;;;;;;;;;;5015410;28;20030;-73
2022/02/15 09:18:25;;;;;;;21.25;12.68;;;;;;;;;;5014697;28;20032;-74
2022/02/15 09:20:51;;;;;;;21.70;10.07;;;;;;;;;;5014022;28;20053;-72
2022/02/15 09:23:17;;;;;;;21.05;12.35;;;;;;;;;;5014119;28;20390;-73
2022/02/15 09:25:43;;;;;;;17.40;8.52;;;;;;;;;;5014546;28;20453;-72
2022/02/15 09:28:09;;;;;;;11.63;6.07;;;;;;;;;;5014680;28;20045;-73
2022/02/15 09:30:35;;;;;;;8.75;5.72;;;;;;;;;;5014832;28;20447;-72
2022/02/15 09:33:01;;;;;;;9.70;3.70;;;;;;;;;;5013912;28;20022;-72
2022/02/15 09:35:27;;;;;;;5.47;2.97;;;;;;;;;;5014584;28;20053;-73
2022/02/15 09:37:53;;;;;;;7.85;2.67;;;;;;;;;;5014487;28;20056;-73
2022/02/15 09:40:19;;;;;;;10.43;2.97;;;;;;;;;;5014397;28;20113;-73
2022/02/15 09:42:45;;;;;;;7.70;2.88;;;;;;;;;;5013950;28;20540;-72
2022/02/15 09:45:11;;;;;;;6.55;3.17;;;;;;;;;;5014718;28;20088;-73
2022/02/15 09:47:38;;;;;;;9.93;3.15;;;;;;;;;;5014177;28;20499;-73
2022/02/15 09:50:05;;;;;;;7.93;3.05;;;;;;;;;;5014277;28;20546;-73
2022/02/15 09:52:31;;;;;;;7.90;2.72;;;;;;;;;;5014186;28;20030;-74
2022/02/15 09:54:57;;;;;;;8.60;4.40;;;;;;;;;;5013459;28;20033;-72
2022/02/15 09:57:24;;;;;;;6.72;2.80;;;;;;;;;;5014119;28;20484;-73
2022/02/15 09:59:50;;;;;;;6.43;2.80;;;;;;;;;;5014055;28;20037;-74
2022/02/15 10:02:23;;;;;;;9.52;2.65;;;;;;;;;;5014059;28;20053;-73
2022/02/15 10:04:55;;;;;;;9.07;2.83;;;;;;;;;;5013419;28;20460;-74
2022/02/15 10:07:22;;;;;;;6.57;2.10;;;;;;;;;;5012651;28;20036;-73
2022/02/15 10:09:49;;;;;;;5.57;2.10;;;;;;;;;;5014011;28;20100;-73
2022/02/15 10:12:15;;;;;;;5.47;2.72;;;;;;;;;;5014001;28;20484;-73
2022/02/15 10:14:43;;;;;;;5.97;2.67;;;;;;;;;;5013321;28;20105;-73
2022/02/15 10:17:16;;;;;;;7.82;2.63;;;;;;;;;;5013866;28;20037;-72
2022/02/15 10:19:43;;;;;;;6.03;2.47;;;;;;;;;;5013939;28;20112;-72
2022/02/15 10:22:09;;;;;;;8.80;2.53;;;;;;;;;;5013645;28;20018;-72
2022/02/15 10:24:39;;;;;;;8.00;3.10;;;;;;;;;;5013134;28;20030;-72
2022/02/15 10:27:06;;;;;;;10.63;2.95;;;;;;;;;;4999981;28;20125;-72
2022/02/15 10:29:34;;;;;;;7.07;2.30;;;;;;;;;;4993899;28;20426;-73
2022/02/15 10:32:00;;;;;;;7.15;2.25;;;;;;;;;;4994051;28;20026;-72
2022/02/15 10:34:27;;;;;;;6.85;2.83;;;;;;;;;;4993355;28;20038;-73
2022/02/15 10:36:54;;;;;;;5.35;2.42;;;;;;;;;;5008881;28;20033;-73
2022/02/15 10:39:20;;;;;;;4.53;1.98;;;;;;;;;;4994070;28;20459;-73
2022/02/15 10:41:46;;;;;;;4.88;1.95;;;;;;;;;;4993865;28;20035;-74
2022/02/15 10:44:12;;;;;;;6.10;2.40;;;;;;;;;;4993300;28;20484;-74
2022/02/15 10:46:40;;;;;;;5.20;2.22;;;;;;;;;;4994075;28;20033;-74
2022/02/15 10:49:07;;;;;;;7.53;2.55;;;;;;;;;;4993906;28;20109;-73
2022/02/15 10:51:33;;;;;;;4.18;2.05;;;;;;;;;;4994635;28;20041;-74
2022/02/15 10:54:00;;;;;;;7.93;2.53;;;;;;;;;;4993012;28;20033;-73
2022/02/15 10:56:35;;;;;;;4.78;2.10;;;;;;;;;;4994013;28;20027;-73
2022/02/15 10:59:05;;;;;;;9.02;2.30;;;;;;;;;;4993130;28;20396;-71
2022/02/15 11:01:32;;;;;;;7.65;3.17;;;;;;;;;;4993566;28;20434;-73
2022/02/15 11:03:59;;;;;;;14.02;3.78;;;;;;;;;;4992729;28;20027;-73
2022/02/15 11:06:25;;;;;;;6.32;2.28;;;;;;;;;;4993870;28;20030;-72
2022/02/15 11:08:52;;;;;;;5.78;2.00;;;;;;;;;;4993272;28;20022;-72
2022/02/15 11:11:21;;;;;;;4.75;2.50;;;;;;;;;;4996334;28;20034;-73
2022/02/15 11:13:47;;;;;;;5.95;1.70;;;;;;;;;;4992569;28;20101;-74
2022/02/15 11:16:13;;;;;;;4.47;1.98;;;;;;;;;;4992841;28;20033;-74
2022/02/15 11:18:40;;;;;;;6.05;2.67;;;;;;;;;;4993789;28;20026;-73
2022/02/15 11:21:06;;;;;;;6.05;2.63;;;;;;;;;;4993833;28;20026;-73
2022/02/15 11:23:37;;;;;;;5.32;2.50;;;;;;;;;;5007498;28;20030;-73
2022/02/15 11:26:03;;;;;;;6.90;2.10;;;;;;;;;;4993060;28;20334;-72
2022/02/15 11:28:29;;;;;;;11.57;2.70;;;;;;;;;;4992784;28;20034;-72
2022/02/15 11:30:56;;;;;;;6.90;2.55;;;;;;;;;;4993012;28;20029;-73
2022/02/15 11:33:25;;;;;;;5.80;2.47;;;;;;;;;;4992386;28;20092;-72
2022/02/15 11:35:55;;;;;;;7.15;2.50;;;;;;;;;;4992896;28;20124;-73
2022/02/15 11:38:22;;;;;;;5.60;2.50;;;;;;;;;;4992598;28;20026;-73
2022/02/15 11:41:07;;;;;;;5.57;2.80;;;;;;;;;;4992879;28;20022;-73
2022/02/15 11:43:33;;;;;;;9.02;3.58;;;;;;;;;;4991999;28;20029;-73
2022/02/15 11:46:00;;;;;;;10.07;3.35;;;;;;;;;;4992767;28;20026;-73
2022/02/15 11:48:39;;;;;;;8.32;3.20;;;;;;;;;;4992578;28;20461;-74
2022/02/15 11:51:22;;;;;;;5.20;2.47;;;;;;;;;;4993305;28;20113;-73
2022/02/15 11:53:49;;;;;;;4.18;2.42;;;;;;;;;;4992699;28;20172;-72
2022/02/15 11:56:15;;;;;;;3.72;2.33;;;;;;;;;;4993578;28;20421;-72
2022/02/15 11:58:49;;;;;;;5.25;2.50;;;;;;;;;;4993313;28;20028;-72
2022/02/15 12:01:23;;;;;;;7.97;3.38;;;;;;;;;;4994195;28;20026;-73
2022/02/15 12:03:49;;;;;;;6.35;2.90;;;;;;;;;;5008416;28;20019;-73
2022/02/15 12:06:16;;;;;;;10.98;3.60;;;;;;;;;;4993207;28;20027;-74
2022/02/15 12:08:52;;;;;;;6.65;2.65;;;;;;;;;;5007265;28;20026;-73
2022/02/15 12:11:18;;;;;;;8.35;2.88;;;;;;;;;;4991634;28;20034;-73
2022/02/15 12:13:47;;;;;;;5.63;2.20;;;;;;;;;;4992203;28;20023;-73
2022/02/15 12:16:13;;;;;;;7.07;2.40;;;;;;;;;;4992920;28;20022;-73
2022/02/15 12:18:39;;;;;;;6.72;2.42;;;;;;;;;;4994034;28;20495;-73
2022/02/15 12:21:05;;;;;;;5.50;2.80;;;;;;;;;;4994031;28;20023;-71
2022/02/15 12:23:31;;;;;;;8.20;2.67;;;;;;;;;;4993194;28;20113;-73
2022/02/15 12:25:57;;;;;;;8.32;2.42;;;;;;;;;;4993519;28;20019;-73
2022/02/15 12:28:24;;;;;;;7.40;3.30;;;;;;;;;;4993014;28;20388;-71
2022/02/15 12:30:50;;;;;;;7.07;2.28;;;;;;;;;;4992844;28;20023;-73
2022/02/15 12:33:18;;;;;;;9.65;3.15;;;;;;;;;;4991490;28;20093;-73
2022/02/15 12:35:44;;;;;;;6.28;1.95;;;;;;;;;;4992229;28;20033;-73
2022/02/15 12:38:10;;;;;;;4.80;2.20;;;;;;;;;;4992102;28;20447;-72
2022/02/15 12:40:38;;;;;;;9.23;2.55;;;;;;;;;;4992207;28;20031;-74
2022/02/15 12:43:05;;;;;;;3.88;1.92;;;;;;;;;;4991576;28;20037;-72
2022/02/15 12:45:31;;;;;;;3.72;1.95;;;;;;;;;;4992103;28;20018;-73
2022/02/15 12:48:00;;;;;;;7.50;2.40;;;;;;;;;;4992012;28;20061;-73
2022/02/15 12:50:26;;;;;;;4.00;2.22;;;;;;;;;;4992274;28;20022;-73
2022/02/15 12:52:53;;;;;;;6.97;2.65;;;;;;;;;;4991417;28;20026;-73
2022/02/15 12:55:23;;;;;;;8.73;2.45;;;;;;;;;;4991859;28;20041;-73
2022/02/15 12:57:50;;;;;;;6.13;2.10;;;;;;;;;;4991678;28;20085;-73
2022/02/15 13:00:17;;;;;;;3.92;1.90;;;;;;;;;;4991747;28;20034;-74
2022/02/15 13:02:49;;;;;;;4.40;2.30;;;;;;;;;;4991768;28;20530;-73
2022/02/15 13:05:21;;;;;;;9.40;2.58;;;;;;;;;;4991912;28;20053;-73
2022/02/15 13:07:48;;;;;;;9.48;2.65;;;;;;;;;;4991764;28;20049;-73
2022/02/15 13:10:14;;;;;;;4.65;2.70;;;;;;;;;;4991971;28;20392;-72
2022/02/15 13:12:40;;;;;;;6.82;2.33;;;;;;;;;;4994503;28;20037;-73
2022/02/15 13:15:07;;;;;;;6.30;3.20;;;;;;;;;;4991754;28;20026;-73
2022/02/15 13:17:45;;;;;;;5.38;1.98;;;;;;;;;;4991683;28;20373;-73
2022/02/15 13:20:19;;;;;;;7.40;3.10;;;;;;;;;;4992036;28;20050;-73
2022/02/15 13:22:45;;;;;;;15.95;4.15;;;;;;;;;;4993287;28;20023;-72
2022/02/15 13:25:12;;;;;;;9.25;2.58;;;;;;;;;;4995125;28;20023;-73
2022/02/15 13:27:38;;;;;;;13.85;2.92;;;;;;;;;;4995078;28;20552;-74
2022/02/15 13:30:25;;;;;;;9.52;2.83;;;;;;;;;;4995209;28;20022;-73
2022/02/15 13:32:58;;;;;;;5.57;2.53;;;;;;;;;;4994724;28;20030;-73
2022/02/15 13:35:24;;;;;;;17.35;3.42;;;;;;;;;;4994861;28;20079;-73
2022/02/15 13:37:56;;;;;;;12.27;2.03;;;;;;;;;;4994697;28;20500;-74
2022/02/15 13:40:22;;;;;;;3.67;1.92;;;;;;;;;;5010041;28;20061;-73
2022/02/15 13:42:48;;;;;;;7.28;2.80;;;;;;;;;;4994530;28;20062;-73
2022/02/15 13:45:14;;;;;;;8.70;2.78;;;;;;;;;;4994690;28;20436;-73
2022/02/15 13:47:41;;;;;;;3.97;2.72;;;;;;;;;;4994607;28;20034;-72
2022/02/15 13:50:07;;;;;;;4.80;1.95;;;;;;;;;;4994809;28;20453;-73
2022/02/15 13:52:36;;;;;;;5.90;2.70;;;;;;;;;;4994682;28;20374;-72
2022/02/15 13:55:03;;;;;;;7.40;2.33;;;;;;;;;;4994155;28;20471;-72
2022/02/15 13:57:30;;;;;;;8.00;2.75;;;;;;;;;;4994620;28;20034;-73
2022/02/15 13:59:56;;;;;;;9.88;3.03;;;;;;;;;;5009434;28;20041;-73
2022/02/15 14:02:22;;;;;;;7.50;2.72;;;;;;;;;;4994528;28;20034;-74
2022/02/15 14:04:48;;;;;;;10.45;3.60;;;;;;;;;;4993764;28;20480;-74
2022/02/15 14:07:13;;;;;;;8.05;2.63;;;;;;;;;;5009554;28;20076;-73
2022/02/15 14:09:41;;;;;;;7.03;2.83;;;;;;;;;;4994275;28;20019;-73
2022/02/15 14:12:07;;;;;;;4.63;2.40;;;;;;;;;;4994665;28;20436;-73
2022/02/15 14:14:33;;;;;;;9.80;2.65;;;;;;;;;;4993675;28;20036;-73
2022/02/15 14:19:45;;;;;;;2.92;1.80;;;;;;;;;;4994099;28;20065;-73
2022/02/15 14:22:11;;;;;;;5.45;2.80;;;;;;;;;;4994059;28;20397;-73
2022/02/15 14:24:37;;;;;;;6.35;2.38;;;;;;;;;;4993343;28;20023;-73
2022/02/15 14:27:03;;;;;;;6.53;2.28;;;;;;;;;;4995899;28;20022;-73
2022/02/15 14:29:30;;;;;;;7.97;1.88;;;;;;;;;;4994994;28;20049;-73
2022/02/15 14:31:55;;;;;;;5.55;2.35;;;;;;;;;;4993992;28;20034;-73